Time;durP1;ratioP1;P1;durP2;ratioP2;P2;SDS_P1;SDS_P2;PMS_P1;PMS_P2;Temp;Humidity;BMP_temperature;BMP_pressure;BME280_temperature;BME280_humidity;BME280_pressure;Samples;Min_cycle;Max_cycle;Signal;HPM_P1;HPM_P2
2022/07/25 00:01:10;;;;;;;2.65;2.40;;;;;;;18.17;67.01;99823.66;4822495;29;20461;-78
2022/07/25 00:03:35;;;;;;;2.95;2.08;;;;;;;18.11;67.49;99829.38;4822860;29;20054;-77
2022/07/25 00:06:01;;;;;;;2.63;2.40;;;;;;;18.13;66.21;99836.22;4822757;29;20030;-78
2022/07/25 00:08:26;;;;;;;3.00;2.25;;;;;;;18.03;66.18;99822.03;4823139;29;20121;-78
2022/07/25 00:10:51;;;;;;;3.05;2.20;;;;;;;18.08;66.95;99824.34;4822800;29;20491;-78
2022/07/25 00:13:17;;;;;;;2.75;2.50;;;;;;;18.08;68.34;99824.34;4822446;29;20046;-75
2022/07/25 00:15:42;;;;;;;2.90;2.50;;;;;;;17.97;67.66;99811.13;4822646;29;20601;-74
2022/07/25 00:18:07;;;;;;;2.33;2.08;;;;;;;17.95;67.46;99820.00;4822679;29;20034;-75
2022/07/25 00:20:33;;;;;;;4.80;2.47;;;;;;;17.89;68.19;99819.59;4822605;29;20027;-75
2022/07/25 00:22:58;;;;;;;3.80;2.50;;;;;;;17.89;68.82;99827.50;4822633;29;20117;-78
2022/07/25 00:25:23;;;;;;;5.05;2.92;;;;;;;17.78;69.95;99820.41;4823009;29;20062;-78
2022/07/25 00:27:49;;;;;;;4.47;2.55;;;;;;;17.81;70.03;99822.78;4826208;29;20399;-76
2022/07/25 00:30:14;;;;;;;3.92;2.30;;;;;;;17.78;69.84;99827.44;4825625;29;20030;-75
2022/07/25 00:32:39;;;;;;;3.03;2.55;;;;;;;17.64;69.66;99808.19;4826032;29;20073;-75
2022/07/25 00:35:05;;;;;;;2.67;2.20;;;;;;;17.67;70.72;99813.25;4825730;29;20087;-75
2022/07/25 00:37:30;;;;;;;5.35;2.53;;;;;;;17.70;70.19;99822.72;4825920;29;20057;-75
2022/07/25 00:39:56;;;;;;;7.95;2.92;;;;;;;17.61;69.60;99804.94;4825723;29;20055;-74
2022/07/25 00:42:22;;;;;;;4.78;2.65;;;;;;;17.61;70.59;99815.47;4825339;29;20391;-75
2022/07/25 00:44:48;;;;;;;4.88;3.00;;;;;;;17.61;70.90;99818.97;4825620;29;20368;-75
2022/07/25 00:47:14;;;;;;;3.55;2.60;;;;;;;17.51;72.52;99807.41;4825281;29;20071;-74
2022/07/25 00:49:39;;;;;;;2.65;2.45;;;;;;;17.55;71.55;99814.13;4825690;29;20045;-75
2022/07/25 00:52:05;;;;;;;2.50;2.30;;;;;;;17.56;71.41;99814.97;4825258;29;20042;-74
2022/07/25 00:54:31;;;;;;;3.35;2.70;;;;;;;17.53;71.51;99810.78;4825426;29;20058;-75
2022/07/25 00:56:56;;;;;;;2.92;2.60;;;;;;;17.55;70.74;99811.50;4825451;29;20034;-74
2022/07/25 00:59:22;;;;;;;5.18;2.75;;;;;;;17.51;70.80;99801.31;4825186;29;20037;-75
2022/07/25 01:01:47;;;;;;;3.05;2.75;;;;;;;17.52;71.63;99806.44;4825275;29;20038;-75
2022/07/25 01:04:14;;;;;;;3.25;2.78;;;;;;;17.44;72.00;99793.00;4825429;29;20667;-74
2022/07/25 01:06:39;;;;;;;3.70;2.80;;;;;;;17.36;71.19;99787.44;4825445;29;20387;-74
2022/07/25 01:09:05;;;;;;;3.65;2.90;;;;;;;17.44;71.50;99801.78;4825433;29;20037;-75
2022/07/25 01:11:31;;;;;;;3.17;2.80;;;;;;;17.49;71.64;99798.78;4825231;29;20118;-74
2022/07/25 01:13:56;;;;;;;4.05;3.05;;;;;;;17.45;71.51;99786.81;4825132;29;20042;-75
2022/07/25 01:16:21;;;;;;;2.67;2.40;;;;;;;17.43;71.85;99779.00;4824833;29;20096;-75
2022/07/25 01:18:47;;;;;;;2.75;2.38;;;;;;;17.50;72.07;99792.56;4825065;29;20144;-75
2022/07/25 01:21:13;;;;;;;5.35;2.80;;;;;;;17.52;71.66;99795.09;4824926;29;20031;-75
2022/07/25 01:23:39;;;;;;;6.70;2.90;;;;;;;17.46;71.75;99781.41;4825213;29;20082;-74
2022/07/25 01:26:04;;;;;;;3.50;2.97;;;;;;;17.50;71.94;99791.72;4824984;29;20034;-75
2022/07/25 01:28:30;;;;;;;3.10;2.80;;;;;;;17.44;71.61;99785.09;4824933;29;20436;-75
2022/07/25 01:30:55;;;;;;;2.92;2.72;;;;;;;17.48;71.81;99788.34;4824830;29;20031;-75
2022/07/25 01:33:21;;;;;;;3.90;3.00;;;;;;;17.48;71.72;99791.81;4824760;29;20118;-75
2022/07/25 01:35:48;;;;;;;3.67;2.72;;;;;;;17.38;71.89;99762.69;4824813;29;20498;-75
2022/07/25 01:38:15;;;;;;;3.42;2.60;;;;;;;17.45;72.05;99785.00;4823640;29;20034;-76
2022/07/25 01:40:41;;;;;;;3.72;2.70;;;;;;;17.34;74.59;99776.19;4824689;29;20560;-75
2022/07/25 01:43:06;;;;;;;3.30;3.00;;;;;;;17.32;73.40;99778.09;4824517;29;20095;-75
2022/07/25 01:45:33;;;;;;;3.78;3.10;;;;;;;17.24;73.85;99770.78;4824533;29;20031;-75
2022/07/25 01:47:58;;;;;;;3.10;2.70;;;;;;;17.13;73.88;99761.00;4824830;29;20039;-75
2022/07/25 01:50:23;;;;;;;4.03;3.08;;;;;;;17.12;73.64;99758.50;4824376;29;20045;-75
2022/07/25 01:52:49;;;;;;;5.50;2.78;;;;;;;17.19;73.78;99768.47;4824682;29;20049;-75
2022/07/25 01:55:15;;;;;;;3.72;2.85;;;;;;;17.17;74.16;99770.38;4824290;29;20034;-75
2022/07/25 01:57:40;;;;;;;7.85;3.05;;;;;;;17.11;74.61;99765.56;4824537;29;20030;-75
2022/07/25 02:00:09;;;;;;;4.63;2.80;;;;;;;17.11;73.46;99769.97;4824412;29;20026;-75
2022/07/25 02:02:34;;;;;;;5.00;3.03;;;;;;;17.13;74.17;99778.59;4824616;29;20046;-75
2022/07/25 02:05:00;;;;;;;3.85;3.10;;;;;;;17.11;74.18;99762.09;4824555;29;20071;-75
2022/07/25 02:07:25;;;;;;;4.50;2.80;;;;;;;17.10;73.43;99763.00;4824256;29;20078;-75
2022/07/25 02:09:51;;;;;;;4.30;3.03;;;;;;;17.05;74.17;99755.44;4824295;29;20101;-75
2022/07/25 02:12:16;;;;;;;3.00;2.70;;;;;;;17.03;73.66;99757.38;4824096;29;20126;-74
2022/07/25 02:14:42;;;;;;;4.45;2.92;;;;;;;17.01;73.72;99748.72;4824105;29;20054;-75
2022/07/25 02:17:07;;;;;;;4.63;2.85;;;;;;;17.05;74.75;99751.97;4824403;29;20030;-75
2022/07/25 02:19:33;;;;;;;4.75;3.50;;;;;;;16.93;73.47;99735.28;4824262;29;20038;-75
2022/07/25 02:21:58;;;;;;;4.65;3.03;;;;;;;16.99;74.03;99742.75;4823025;29;20391;-75
2022/07/25 02:24:24;;;;;;;4.40;2.47;;;;;;;17.03;73.42;99760.00;4823990;29;20039;-76
2022/07/25 02:26:49;;;;;;;4.65;2.95;;;;;;;16.99;73.46;99760.34;4824173;29;20038;-75
2022/07/25 02:29:14;;;;;;;3.03;2.72;;;;;;;16.92;73.79;99752.84;4823726;29;20037;-74
2022/07/25 02:31:40;;;;;;;3.33;2.60;;;;;;;16.94;74.18;99755.41;4824174;29;20184;-74
2022/07/25 02:34:05;;;;;;;3.25;2.70;;;;;;;16.96;74.07;99756.94;4824347;29;20065;-75
2022/07/25 02:36:30;;;;;;;4.18;2.70;;;;;;;16.92;74.79;99758.13;4823840;29;20041;-75
2022/07/25 02:38:56;;;;;;;3.45;2.80;;;;;;;16.91;75.05;99755.59;4823960;29;20027;-74
2022/07/25 02:41:21;;;;;;;4.20;2.97;;;;;;;16.93;74.55;99761.59;4823667;29;20031;-75
2022/07/25 02:43:46;;;;;;;3.25;2.95;;;;;;;16.84;74.37;99742.03;4823756;29;20027;-75
2022/07/25 02:46:12;;;;;;;3.35;2.67;;;;;;;16.85;73.97;99746.34;4824026;29;20036;-75
2022/07/25 02:48:37;;;;;;;3.67;2.85;;;;;;;16.88;74.26;99740.03;4823731;29;20029;-75
2022/07/25 02:51:03;;;;;;;3.85;2.58;;;;;;;16.90;73.83;99748.66;4823687;29;20048;-74
2022/07/25 02:53:28;;;;;;;3.88;2.83;;;;;;;16.87;74.23;99743.63;4823552;29;20042;-74
2022/07/25 02:55:53;;;;;;;4.65;2.53;;;;;;;16.88;73.89;99740.88;4823674;29;20034;-75
2022/07/25 02:58:19;;;;;;;3.03;2.65;;;;;;;16.86;73.43;99734.06;4823352;29;20026;-75
2022/07/25 03:00:44;;;;;;;7.32;3.08;;;;;;;16.93;73.18;99740.53;4823798;29;20034;-74
2022/07/25 03:03:09;;;;;;;4.95;3.33;;;;;;;16.87;73.83;99735.72;4823555;29;20069;-75
2022/07/25 03:05:35;;;;;;;4.20;3.10;;;;;;;16.91;73.58;99739.81;4823485;29;20026;-75
2022/07/25 03:08:00;;;;;;;4.88;2.92;;;;;;;16.90;75.20;99746.88;4823613;29;20423;-75
2022/07/25 03:10:26;;;;;;;4.93;2.75;;;;;;;16.83;74.78;99732.47;4823316;29;20030;-75
2022/07/25 03:12:51;;;;;;;5.10;3.13;;;;;;;16.86;74.24;99734.88;4823396;29;20092;-75
2022/07/25 03:15:16;;;;;;;2.80;2.60;;;;;;;16.86;73.38;99724.38;4823316;29;20562;-74
2022/07/25 03:17:42;;;;;;;6.47;3.42;;;;;;;16.87;73.19;99733.94;4823480;29;20030;-75
2022/07/25 03:20:09;;;;;;;4.57;3.50;;;;;;;16.91;73.32;99731.94;4823488;29;20026;-75
2022/07/25 03:22:34;;;;;;;3.60;3.28;;;;;;;16.98;73.22;99741.06;4806476;29;20027;-75
2022/07/25 03:25:00;;;;;;;4.10;2.50;;;;;;;16.91;73.02;99724.88;4823261;29;20034;-74
2022/07/25 03:27:25;;;;;;;7.13;3.20;;;;;;;16.88;72.83;99719.00;4823000;29;20034;-75
2022/07/25 03:29:51;;;;;;;5.75;2.90;;;;;;;16.93;74.34;99722.13;4823452;29;20034;-75
2022/07/25 03:32:17;;;;;;;4.40;3.03;;;;;;;17.02;74.14;99731.97;4823216;29;20038;-75
2022/07/25 03:34:42;;;;;;;5.43;3.15;;;;;;;16.97;73.87;99718.31;4823204;29;20033;-74
2022/07/25 03:37:08;;;;;;;6.00;3.20;;;;;;;17.05;73.56;99720.41;4823236;29;20052;-75
2022/07/25 03:39:33;;;;;;;3.40;2.90;;;;;;;17.11;73.25;99727.88;4822970;29;20042;-75
2022/07/25 03:41:59;;;;;;;4.80;2.67;;;;;;;17.15;72.39;99729.31;4822999;29;20110;-75
2022/07/25 03:44:24;;;;;;;3.47;2.80;;;;;;;17.13;72.11;99711.00;4823041;29;20114;-75
2022/07/25 03:46:50;;;;;;;2.90;2.60;;;;;;;17.15;72.06;99708.25;4823187;29;20042;-75
2022/07/25 03:49:16;;;;;;;4.65;2.97;;;;;;;17.27;70.47;99714.41;4822864;29;20026;-75
2022/07/25 03:51:41;;;;;;;5.18;3.25;;;;;;;17.37;70.66;99720.69;4823085;29;20113;-75
2022/07/25 03:54:12;;;;;;;7.03;3.70;;;;;;;17.42;69.03;99719.41;4822988;29;20455;-75
2022/07/25 03:56:40;;;;;;;3.70;3.15;;;;;;;17.50;68.65;99720.63;4822576;29;20031;-75
2022/07/25 03:59:06;;;;;;;6.80;3.10;;;;;;;17.61;67.42;99720.66;4822945;29;20035;-75
2022/07/25 04:01:33;;;;;;;4.70;2.90;;;;;;;17.71;67.01;99719.03;4825104;29;20090;-75
2022/07/25 04:03:59;;;;;;;5.25;3.30;;;;;;;17.90;66.77;99721.13;4826307;29;20058;-75
2022/07/25 04:06:25;;;;;;;4.75;3.35;;;;;;;17.98;65.62;99710.84;4826136;29;20034;-75
2022/07/25 04:08:51;;;;;;;6.75;3.47;;;;;;;18.09;64.39;99710.88;4826717;29;20049;-75
2022/07/25 04:11:16;;;;;;;5.43;3.08;;;;;;;18.26;64.49;99703.47;4826006;29;20035;-75
2022/07/25 04:13:42;;;;;;;5.80;2.90;;;;;;;18.68;63.12;99709.81;4826057;29;20050;-75
2022/07/25 04:16:09;;;;;;;5.38;3.63;;;;;;;19.42;60.37;99704.72;4826303;29;20036;-75
2022/07/25 04:18:34;;;;;;;4.35;3.00;;;;;;;20.33;56.98;99696.16;4824977;29;20536;-75
2022/07/25 04:21:00;;;;;;;4.18;3.15;;;;;;;20.87;55.27;99705.56;4826076;29;20182;-75
2022/07/25 04:23:27;;;;;;;4.00;3.30;;;;;;;20.88;54.26;99696.63;4825744;29;20121;-75
2022/07/25 04:25:53;;;;;;;4.47;2.63;;;;;;;21.04;54.45;99700.59;4825888;29;20390;-75
2022/07/25 04:28:18;;;;;;;6.15;2.60;;;;;;;21.37;53.58;99686.16;4825876;29;20121;-75
2022/07/25 04:30:44;;;;;;;5.95;3.30;;;;;;;21.67;51.93;99695.75;4825883;29;20082;-75
2022/07/25 04:33:10;;;;;;;5.32;2.70;;;;;;;21.89;51.11;99691.94;4825955;29;20125;-75
2022/07/25 04:35:36;;;;;;;4.85;2.90;;;;;;;22.69;49.60;99692.38;4825558;29;20030;-75
2022/07/25 04:38:01;;;;;;;3.92;3.08;;;;;;;23.50;47.28;99681.75;4825692;29;20399;-75
2022/07/25 04:40:27;;;;;;;5.45;3.25;;;;;;;24.02;45.42;99681.81;4825415;29;20027;-75
2022/07/25 04:42:52;;;;;;;5.65;2.85;;;;;;;24.19;44.82;99686.28;4825662;29;20634;-75
2022/07/25 04:45:17;;;;;;;4.60;3.00;;;;;;;23.80;45.93;99683.19;4824502;29;20126;-75
2022/07/25 04:47:43;;;;;;;4.60;2.92;;;;;;;23.55;46.08;99677.63;4825743;29;20042;-75
2022/07/25 04:50:09;;;;;;;3.03;2.45;;;;;;;23.69;45.57;99676.31;4825658;29;20042;-75
2022/07/25 04:52:34;;;;;;;3.00;2.60;;;;;;;23.96;45.66;99677.13;4825396;29;20030;-75
2022/07/25 04:54:59;;;;;;;4.70;2.72;;;;;;;23.99;45.14;99682.16;4825920;29;20042;-74
2022/07/25 04:57:25;;;;;;;3.20;2.83;;;;;;;24.39;44.69;99673.56;4825479;29;20033;-75
2022/07/25 04:59:50;;;;;;;3.13;2.65;;;;;;;24.08;43.83;99673.22;4825619;29;20091;-75
2022/07/25 05:02:16;;;;;;;4.53;3.00;;;;;;;23.97;45.17;99681.47;4825144;29;20026;-75
2022/07/25 05:04:41;;;;;;;4.57;2.53;;;;;;;24.64;43.60;99675.31;4825262;29;20168;-75
2022/07/25 05:07:07;;;;;;;6.80;3.00;;;;;;;24.80;42.94;99668.41;4825361;29;20035;-75
2022/07/25 05:09:32;;;;;;;8.20;3.28;;;;;;;24.58;43.49;99664.50;4825052;29;20491;-75
2022/07/25 05:11:57;;;;;;;4.03;2.50;;;;;;;24.58;43.53;99660.00;4825417;29;20039;-75
2022/07/25 05:14:23;;;;;;;9.23;2.85;;;;;;;24.45;43.96;99654.31;4825349;29;20033;-75
2022/07/25 05:16:49;;;;;;;4.10;2.65;;;;;;;24.70;42.75;99647.25;4825284;29;20117;-74
2022/07/25 05:19:14;;;;;;;4.18;2.95;;;;;;;24.82;42.95;99659.25;4825230;29;20030;-75
2022/07/25 05:21:39;;;;;;;3.83;2.97;;;;;;;25.24;41.59;99650.38;4823685;29;20046;-75
2022/07/25 05:24:05;;;;;;;5.78;2.95;;;;;;;25.48;40.38;99651.34;4824924;29;20030;-75
2022/07/25 05:26:30;;;;;;;3.83;2.63;;;;;;;26.09;39.84;99648.13;4824691;29;20672;-75
2022/07/25 05:28:57;;;;;;;4.03;2.75;;;;;;;25.99;40.34;99652.78;4825163;29;20106;-75
2022/07/25 05:31:22;;;;;;;3.63;2.70;;;;;;;25.88;40.56;99638.00;4824762;29;20034;-75
2022/07/25 05:33:47;;;;;;;5.80;3.00;;;;;;;25.82;40.31;99641.31;4824985;29;20026;-76
2022/07/25 05:36:13;;;;;;;5.03;2.65;;;;;;;26.07;40.39;99650.09;4824903;29;20035;-75
2022/07/25 05:38:39;;;;;;;8.88;2.88;;;;;;;26.20;39.96;99635.41;4824532;29;20592;-75
2022/07/25 05:41:04;;;;;;;5.82;2.92;;;;;;;26.62;39.03;99635.91;4824725;29;20038;-76
2022/07/25 05:43:29;;;;;;;4.78;2.53;;;;;;;28.45;36.60;99646.56;4824677;29;20066;-75
2022/07/25 05:46:03;;;;;;;4.88;3.30;;;;;;;28.79;35.27;99645.94;4824841;29;20424;-75
2022/07/25 05:48:28;;;;;;;4.13;3.33;;;;;;;28.56;35.70;99636.19;4824296;29;20023;-75
2022/07/25 05:50:54;;;;;;;3.28;2.80;;;;;;;28.16;36.61;99655.41;4824628;29;20098;-75
2022/07/25 05:53:19;;;;;;;7.35;2.67;;;;;;;28.09;36.75;99639.25;4824567;29;20038;-75
2022/07/25 05:55:45;;;;;;;5.82;2.92;;;;;;;28.51;35.95;99641.28;4824587;29;20475;-75
2022/07/25 05:58:10;;;;;;;3.22;2.30;;;;;;;27.93;36.51;99639.44;4824747;29;20419;-75
2022/07/25 06:00:36;;;;;;;3.47;2.20;;;;;;;27.88;37.09;99641.84;4824397;29;20364;-75
2022/07/25 06:03:01;;;;;;;3.67;2.50;;;;;;;27.13;38.10;99638.09;4824418;29;20062;-75
2022/07/25 06:05:27;;;;;;;3.10;2.63;;;;;;;26.86;38.15;99645.63;4824351;29;20387;-76
2022/07/25 06:07:52;;;;;;;5.95;2.30;;;;;;;26.54;40.27;99637.78;4824715;29;20038;-75
2022/07/25 06:10:19;;;;;;;5.30;2.90;;;;;;;26.69;37.77;99630.69;4824632;29;20104;-75
2022/07/25 06:12:45;;;;;;;3.78;2.83;;;;;;;27.26;37.72;99635.69;4824256;29;20081;-75
2022/07/25 06:15:10;;;;;;;4.55;2.42;;;;;;;27.31;37.96;99622.59;4824122;29;20042;-75
2022/07/25 06:17:36;;;;;;;5.47;2.70;;;;;;;27.96;36.22;99623.84;4824141;29;20042;-75
2022/07/25 06:20:01;;;;;;;3.28;2.33;;;;;;;28.80;34.80;99623.47;4824264;29;20022;-75
2022/07/25 06:22:29;;;;;;;3.13;2.83;;;;;;;28.55;35.08;99633.69;4823833;29;20030;-75
2022/07/25 06:24:55;;;;;;;3.05;2.25;;;;;;;29.19;34.75;99628.41;4823827;29;20030;-75
2022/07/25 06:27:20;;;;;;;3.25;2.58;;;;;;;28.65;34.55;99625.34;4824113;29;20079;-75
2022/07/25 06:29:45;;;;;;;2.33;2.13;;;;;;;28.96;34.62;99620.56;4823956;29;20037;-75
2022/07/25 06:32:11;;;;;;;3.25;2.28;;;;;;;29.16;33.96;99628.81;4824083;29;20076;-75
2022/07/25 06:34:37;;;;;;;2.58;2.10;;;;;;;29.73;33.51;99624.34;4824100;29;20501;-76
2022/07/25 06:37:03;;;;;;;3.25;2.40;;;;;;;30.63;32.09;99623.34;4823810;29;20073;-75
2022/07/25 06:39:28;;;;;;;4.63;2.78;;;;;;;30.47;31.48;99610.31;4823925;29;20086;-75
2022/07/25 06:41:54;;;;;;;3.25;2.15;;;;;;;30.94;31.63;99611.28;4823958;29;20041;-75
2022/07/25 06:44:19;;;;;;;4.18;2.40;;;;;;;31.02;31.53;99609.22;4823927;29;20098;-75
2022/07/25 06:46:44;;;;;;;3.47;2.45;;;;;;;31.67;30.49;99614.00;4823652;29;20254;-75
2022/07/25 06:49:10;;;;;;;2.47;2.10;;;;;;;31.57;30.82;99600.97;4824078;29;20046;-76
2022/07/25 06:51:35;;;;;;;4.35;2.08;;;;;;;33.54;27.81;99607.50;4825738;29;20121;-76
2022/07/25 06:54:00;;;;;;;2.53;2.33;;;;;;;35.09;27.28;99598.16;4840945;29;20109;-75
2022/07/25 06:56:30;;;;;;;3.08;2.13;;;;;;;38.18;23.82;99608.97;4841086;29;20037;-76
2022/07/25 06:58:56;;;;;;;2.90;2.50;;;;;;;37.80;23.75;99610.63;4822842;29;20539;-75
2022/07/25 07:01:22;;;;;;;6.35;2.67;;;;;;;38.01;23.10;99595.44;4822538;29;20394;-76
2022/07/25 07:03:47;;;;;;;3.65;2.70;;;;;;;39.06;22.16;99589.75;4822176;29;20050;-76
2022/07/25 07:06:12;;;;;;;2.25;2.03;;;;;;;41.22;20.25;99579.50;4822166;29;20050;-76
2022/07/25 07:08:38;;;;;;;2.97;2.15;;;;;;;40.61;20.10;99581.06;4808292;29;20053;-74
2022/07/25 07:11:05;;;;;;;5.35;2.40;;;;;;;41.58;19.67;99580.25;4834997;29;20034;-76
2022/07/25 07:13:30;;;;;;;2.72;1.98;;;;;;;42.29;19.50;99573.72;4831400;29;20164;-76
2022/07/25 07:15:56;;;;;;;2.30;2.10;;;;;;;44.04;18.04;99586.47;4823380;29;20034;-76
2022/07/25 07:18:21;;;;;;;2.58;2.08;;;;;;;42.73;18.65;99576.50;4823445;29;20030;-76
2022/07/25 07:20:47;;;;;;;4.95;2.20;;;;;;;43.31;18.35;99568.31;4823203;29;20049;-76
2022/07/25 07:23:13;;;;;;;3.08;1.92;;;;;;;43.14;18.10;99559.72;4823207;29;20030;-76
2022/07/25 07:25:38;;;;;;;3.35;2.22;;;;;;;45.61;16.66;99570.53;4827114;29;20037;-76
2022/07/25 07:28:05;;;;;;;2.70;1.95;;;;;;;46.73;15.95;99572.78;4841327;29;20030;-76
2022/07/25 07:30:30;;;;;;;3.08;2.30;;;;;;;44.95;16.72;99550.50;4841356;29;20038;-76
2022/07/25 07:32:56;;;;;;;3.42;1.75;;;;;;;44.80;16.59;99542.56;4841312;29;20571;-76
2022/07/25 07:35:24;;;;;;;5.25;1.98;;;;;;;46.15;16.03;99546.03;4840428;29;20040;-76
2022/07/25 07:37:50;;;;;;;2.00;1.90;;;;;;;47.10;16.05;99551.47;4841120;29;20415;-76
2022/07/25 07:40:16;;;;;;;2.97;1.65;;;;;;;44.65;16.62;99554.59;4841627;29;20379;-76
2022/07/25 07:42:45;;;;;;;4.90;2.45;;;;;;;43.26;17.31;99535.47;4841010;29;20055;-76
2022/07/25 07:45:12;;;;;;;3.03;2.05;;;;;;;41.96;18.41;99543.22;4841312;29;20390;-76
2022/07/25 07:47:38;;;;;;;3.17;1.95;;;;;;;43.62;17.33;99531.53;4840899;29;20116;-76
2022/07/25 07:50:04;;;;;;;3.97;2.10;;;;;;;44.08;17.12;99540.84;4840937;29;20109;-76
2022/07/25 07:52:29;;;;;;;3.10;2.05;;;;;;;44.56;16.53;99546.19;4841037;29;20038;-76
2022/07/25 07:57:38;;;;;;;8.50;1.75;;;;;;;45.40;16.17;99533.50;4841151;29;20045;-76
2022/07/25 08:00:04;;;;;;;2.13;1.92;;;;;;;43.76;17.19;99521.50;4841020;29;20031;-76
2022/07/25 08:02:30;;;;;;;5.90;2.40;;;;;;;41.68;18.71;99541.13;4840413;29;20071;-77
2022/07/25 08:04:55;;;;;;;2.75;1.95;;;;;;;40.32;19.97;99528.03;4841247;29;20038;-76
2022/07/25 08:07:21;;;;;;;3.45;2.22;;;;;;;42.06;18.51;99539.63;4841166;29;20030;-76
2022/07/25 08:09:46;;;;;;;3.67;2.20;;;;;;;41.28;18.91;99532.72;4840783;29;20105;-76
2022/07/25 08:12:11;;;;;;;2.60;1.90;;;;;;;40.45;19.78;99513.88;4841033;29;20030;-76
2022/07/25 08:14:37;;;;;;;2.33;1.95;;;;;;;43.20;17.54;99528.41;4840685;29;20467;-76
2022/07/25 08:17:02;;;;;;;2.15;1.90;;;;;;;43.91;16.83;99521.34;4840773;29;20022;-76
2022/07/25 08:19:27;;;;;;;4.20;2.15;;;;;;;39.62;19.00;99513.88;4840849;29;20046;-76
2022/07/25 08:21:53;;;;;;;6.10;1.98;;;;;;;37.31;21.59;99517.22;4840729;29;20026;-76
2022/07/25 08:24:18;;;;;;;2.03;1.88;;;;;;;35.96;22.82;99514.28;4840996;29;20487;-75
2022/07/25 08:26:43;;;;;;;3.20;2.10;;;;;;;34.95;23.57;99506.34;4824241;29;20034;-76
2022/07/25 08:29:09;;;;;;;3.17;1.98;;;;;;;33.34;26.01;99510.50;4840864;29;20094;-75
2022/07/25 08:31:34;;;;;;;4.57;2.20;;;;;;;32.76;27.26;99508.06;4827621;29;20030;-75
2022/07/25 08:33:59;;;;;;;2.53;2.00;;;;;;;32.05;27.46;99495.59;4822485;29;20039;-75
2022/07/25 08:36:25;;;;;;;3.72;2.20;;;;;;;31.20;29.32;99494.78;4822241;29;20543;-76
2022/07/25 08:38:50;;;;;;;5.82;2.60;;;;;;;30.71;30.27;99507.56;4822031;29;20034;-75
2022/07/25 08:41:15;;;;;;;5.50;2.60;;;;;;;30.17;30.50;99504.97;4822209;29;20030;-75
2022/07/25 08:43:43;;;;;;;4.35;2.10;;;;;;;29.83;30.85;99502.16;4821971;29;20030;-75
2022/07/25 08:46:09;;;;;;;2.45;2.05;;;;;;;29.85;31.42;99499.25;4822479;29;20034;-75
2022/07/25 08:48:36;;;;;;;2.40;2.17;;;;;;;30.22;30.71;99489.94;4825593;29;20087;-75
2022/07/25 08:51:02;;;;;;;5.60;2.10;;;;;;;30.54;29.86;99485.63;4825439;29;20483;-75
2022/07/25 08:53:29;;;;;;;3.20;2.20;;;;;;;30.56;30.43;99482.75;4825605;29;20046;-75
2022/07/25 08:55:54;;;;;;;4.13;2.10;;;;;;;30.22;30.33;99492.63;4825413;29;20022;-75
2022/07/25 08:58:20;;;;;;;4.43;2.20;;;;;;;30.32;30.04;99493.03;4825550;29;20083;-75
2022/07/25 09:00:45;;;;;;;3.85;2.05;;;;;;;30.04;29.82;99486.94;4825014;29;20083;-75
2022/07/25 09:03:11;;;;;;;3.53;2.20;;;;;;;30.20;30.25;99472.34;4825283;29;20054;-75
2022/07/25 09:05:37;;;;;;;2.75;2.03;;;;;;;30.16;29.35;99471.91;4825373;29;20475;-75
2022/07/25 09:08:09;;;;;;;5.20;2.00;;;;;;;30.14;29.71;99467.75;4825448;29;20042;-75
2022/07/25 09:10:36;;;;;;;3.33;2.20;;;;;;;30.26;29.73;99469.69;4825114;29;20030;-76
2022/07/25 09:13:06;;;;;;;3.00;2.30;;;;;;;30.28;29.54;99477.53;4825196;29;20091;-75
2022/07/25 09:15:37;;;;;;;3.20;2.35;;;;;;;30.16;29.85;99458.50;4824909;29;20026;-76
2022/07/25 09:18:11;;;;;;;3.55;2.17;;;;;;;30.20;30.28;99467.78;4825309;29;20034;-76
2022/07/25 09:20:52;;;;;;;3.13;2.13;;;;;;;30.34;30.35;99463.31;4825044;29;20176;-76
2022/07/25 09:23:33;;;;;;;6.93;2.30;;;;;;;30.12;29.74;99469.81;4825024;29;20030;-75
2022/07/25 09:26:05;;;;;;;2.55;1.90;;;;;;;30.23;29.80;99470.09;4824765;29;20070;-75
2022/07/25 09:28:31;;;;;;;2.20;2.00;;;;;;;30.15;29.37;99464.91;4828075;29;20042;-75
2022/07/25 09:30:58;;;;;;;3.20;2.03;;;;;;;30.05;29.33;99459.06;4824830;29;20035;-76
2022/07/25 09:33:25;;;;;;;2.30;1.80;;;;;;;29.89;29.56;99462.94;4824830;29;20042;-76
2022/07/25 09:35:52;;;;;;;2.88;1.90;;;;;;;29.63;30.29;99450.22;4824538;29;20510;-76
2022/07/25 09:38:19;;;;;;;2.05;1.85;;;;;;;29.91;30.26;99455.50;4824741;29;20377;-76
2022/07/25 09:40:57;;;;;;;3.10;2.00;;;;;;;29.92;30.10;99459.84;4824639;29;20039;-76
2022/07/25 09:43:35;;;;;;;6.25;2.33;;;;;;;29.78;30.11;99448.22;4824824;29;20030;-76
2022/07/25 09:46:01;;;;;;;6.28;2.15;;;;;;;29.78;29.89;99458.94;4798319;29;20070;-75
2022/07/25 09:48:26;;;;;;;3.28;2.08;;;;;;;29.57;29.35;99451.84;4824654;29;20114;-75
2022/07/25 09:50:53;;;;;;;2.75;2.42;;;;;;;29.29;30.45;99448.38;4824413;29;20033;-75
2022/07/25 09:53:19;;;;;;;2.65;2.10;;;;;;;29.32;30.46;99421.13;4824767;29;20125;-76
2022/07/25 09:55:44;;;;;;;3.42;2.25;;;;;;;29.30;30.35;99434.75;4840792;29;20135;-75
2022/07/25 09:58:12;;;;;;;4.57;2.22;;;;;;;29.20;30.63;99423.56;4827799;29;20117;-74
2022/07/25 10:00:39;;;;;;;5.88;2.00;;;;;;;29.19;30.13;99432.63;4839682;29;20040;-76
2022/07/25 10:03:26;;;;;;;7.30;1.95;;;;;;;29.28;30.64;99436.78;4842402;29;20049;-76
2022/07/25 10:06:09;;;;;;;3.42;1.85;;;;;;;29.38;30.78;99423.03;4842342;29;20075;-76
2022/07/25 10:08:37;;;;;;;3.35;1.88;;;;;;;29.41;30.15;99425.31;4842608;29;20034;-75
2022/07/25 10:11:05;;;;;;;3.08;2.10;;;;;;;29.43;30.14;99425.94;4842432;29;20030;-76
2022/07/25 10:13:33;;;;;;;2.60;2.40;;;;;;;29.38;30.19;99415.00;4842330;29;20129;-75
2022/07/25 10:15:59;;;;;;;4.53;2.00;;;;;;;29.45;30.89;99420.38;4842260;29;20070;-75
2022/07/25 10:18:27;;;;;;;2.72;1.90;;;;;;;29.52;30.55;99415.88;4842630;29;20045;-75
2022/07/25 10:21:09;;;;;;;4.35;2.28;;;;;;;29.60;30.42;99418.41;4842316;29;20069;-76
2022/07/25 10:23:35;;;;;;;3.20;2.17;;;;;;;29.40;30.40;99402.19;4842427;29;20034;-75
2022/07/25 10:26:12;;;;;;;2.35;1.92;;;;;;;29.42;30.36;99407.38;4842098;29;20521;-75
2022/07/25 10:28:46;;;;;;;2.13;1.92;;;;;;;29.49;31.13;99411.72;4842281;29;20034;-76
2022/07/25 10:31:20;;;;;;;2.00;1.80;;;;;;;29.54;30.57;99395.06;4842357;29;20037;-75
2022/07/25 10:33:49;;;;;;;3.15;2.15;;;;;;;29.45;30.44;99404.28;4842004;29;20038;-75
2022/07/25 10:36:14;;;;;;;7.18;2.20;;;;;;;29.25;30.45;99396.16;4842098;29;20558;-75
2022/07/25 10:38:44;;;;;;;2.60;2.40;;;;;;;29.33;30.99;99394.13;4841824;29;20037;-75
2022/07/25 10:41:11;;;;;;;2.97;2.10;;;;;;;29.52;30.95;99397.91;4842267;29;20026;-75
2022/07/25 10:43:38;;;;;;;2.85;2.00;;;;;;;29.57;30.97;99386.59;4842126;29;20432;-75
2022/07/25 10:46:12;;;;;;;4.03;2.15;;;;;;;29.52;30.41;99392.53;4841945;29;20041;-75
2022/07/25 10:48:39;;;;;;;2.08;1.92;;;;;;;29.40;31.15;99371.84;4809411;29;20386;-75
2022/07/25 10:51:11;;;;;;;3.80;2.08;;;;;;;29.61;32.55;99370.94;4841821;29;20030;-75
2022/07/25 10:53:48;;;;;;;2.03;1.90;;;;;;;29.81;31.62;99367.28;4842091;29;20069;-75
2022/07/25 10:56:20;;;;;;;2.72;2.00;;;;;;;29.91;31.38;99361.50;4841995;29;20098;-75
2022/07/25 10:58:57;;;;;;;5.80;2.20;;;;;;;30.00;30.69;99349.56;4841649;29;20026;-75
2022/07/25 11:01:27;;;;;;;3.58;2.28;;;;;;;29.89;31.32;99358.22;4841749;29;20539;-75
2022/07/25 11:03:55;;;;;;;7.13;2.10;;;;;;;29.67;30.86;99349.50;4841534;29;20053;-75
2022/07/25 11:06:32;;;;;;;2.90;2.20;;;;;;;29.72;32.80;99348.88;4841721;29;20042;-75
2022/07/25 11:08:59;;;;;;;3.60;2.00;;;;;;;29.92;31.27;99354.28;4841460;29;20150;-76
2022/07/25 11:11:41;;;;;;;2.42;1.95;;;;;;;30.07;30.62;99349.56;4841785;29;20033;-75
2022/07/25 11:14:15;;;;;;;1.98;1.77;;;;;;;30.14;30.76;99345.03;4841507;29;20030;-75
2022/07/25 11:16:44;;;;;;;1.58;1.50;;;;;;;30.15;30.48;99327.91;4841508;29;20034;-75
2022/07/25 11:19:20;;;;;;;2.33;1.92;;;;;;;30.19;31.00;99318.41;4841544;29;20033;-75
2022/07/25 11:21:59;;;;;;;7.30;2.40;;;;;;;30.25;30.61;99336.38;4841272;29;20037;-75
2022/07/25 11:24:42;;;;;;;6.53;2.43;;;;;;;30.10;30.84;99325.00;4841374;29;20042;-75
2022/07/25 11:27:10;;;;;;;5.47;2.20;;;;;;;30.07;31.01;99328.06;4841701;29;20062;-76
2022/07/25 11:29:37;;;;;;;3.45;2.22;;;;;;;30.03;30.87;99327.66;4841232;29;20536;-75
2022/07/25 11:32:08;;;;;;;3.92;2.10;;;;;;;30.01;31.61;99320.84;4841282;29;20063;-75
2022/07/25 11:34:37;;;;;;;2.53;1.90;;;;;;;29.97;30.73;99320.44;4841258;29;20034;-76